Terminal Aerodrome Forecast
Issued by NWS

Home | Current Version | Previous Version | Text Only | Print | Product List | Glossary Off
Versions: 1 2 3 4 5 6 7 8 9 10 11 12 13 14 15 16 17 18

406
FTUS43 KTOP 071014 AAB
TAFFOE
TAF AMD
KFOE 071014Z 0710/0806 21010KT P6SM BKN150 WS010/24045KT
     FM071300 30011KT P6SM BKN150
     FM071700 30023G33KT P6SM SCT070
     FM080100 30018G26KT P6SM SCT090=

USA.gov is the U.S. government's official web portal to all federal, state and local government web resources and services.